sensor_id;sensor_type;location;lat;lon;timestamp;P1;durP1;ratioP1;P2;durP2;ratioP2
9716;SDS011;4897;43.570;27.832;2024-01-16T00:02:00;23.55;;;21.65;;
9716;SDS011;4897;43.570;27.832;2024-01-16T00:04:29;26.20;;;24.10;;
9716;SDS011;4897;43.570;27.832;2024-01-16T00:06:56;24.92;;;23.00;;
9716;SDS011;4897;43.570;27.832;2024-01-16T00:09:23;26.40;;;24.27;;
9716;SDS011;4897;43.570;27.832;2024-01-16T00:11:50;25.30;;;23.20;;
9716;SDS011;4897;43.570;27.832;2024-01-16T00:14:17;26.02;;;23.67;;
9716;SDS011;4897;43.570;27.832;2024-01-16T00:16:44;26.08;;;24.05;;
9716;SDS011;4897;43.570;27.832;2024-01-16T00:19:13;24.55;;;22.65;;
9716;SDS011;4897;43.570;27.832;2024-01-16T00:21:41;26.40;;;24.40;;
9716;SDS011;4897;43.570;27.832;2024-01-16T00:24:10;24.95;;;22.95;;
9716;SDS011;4897;43.570;27.832;2024-01-16T00:26:37;25.33;;;23.33;;
9716;SDS011;4897;43.570;27.832;2024-01-16T00:29:04;26.02;;;23.77;;
9716;SDS011;4897;43.570;27.832;2024-01-16T00:31:31;26.65;;;24.58;;
9716;SDS011;4897;43.570;27.832;2024-01-16T00:33:58;24.83;;;22.77;;
9716;SDS011;4897;43.570;27.832;2024-01-16T00:36:25;24.70;;;22.70;;
9716;SDS011;4897;43.570;27.832;2024-01-16T00:38:53;22.88;;;21.08;;
9716;SDS011;4897;43.570;27.832;2024-01-16T00:41:20;22.13;;;20.13;;
9716;SDS011;4897;43.570;27.832;2024-01-16T00:43:47;21.17;;;19.35;;
9716;SDS011;4897;43.570;27.832;2024-01-16T00:46:14;22.08;;;20.33;;
9716;SDS011;4897;43.570;27.832;2024-01-16T00:48:41;24.58;;;22.42;;
9716;SDS011;4897;43.570;27.832;2024-01-16T00:51:08;24.65;;;22.65;;
9716;SDS011;4897;43.570;27.832;2024-01-16T00:53:39;24.27;;;22.33;;
9716;SDS011;4897;43.570;27.832;2024-01-16T00:56:08;25.15;;;22.95;;
9716;SDS011;4897;43.570;27.832;2024-01-16T00:58:35;25.67;;;23.58;;
9716;SDS011;4897;43.570;27.832;2024-01-16T01:01:03;26.60;;;24.17;;
9716;SDS011;4897;43.570;27.832;2024-01-16T01:03:30;24.52;;;22.55;;
9716;SDS011;4897;43.570;27.832;2024-01-16T01:05:57;25.73;;;23.65;;
9716;SDS011;4897;43.570;27.832;2024-01-16T01:08:24;25.10;;;23.00;;
9716;SDS011;4897;43.570;27.832;2024-01-16T01:10:51;26.63;;;24.58;;
9716;SDS011;4897;43.570;27.832;2024-01-16T01:13:19;26.23;;;24.15;;
9716;SDS011;4897;43.570;27.832;2024-01-16T01:15:46;26.95;;;24.75;;
9716;SDS011;4897;43.570;27.832;2024-01-16T01:18:12;26.48;;;24.48;;
9716;SDS011;4897;43.570;27.832;2024-01-16T01:20:39;26.42;;;24.33;;
9716;SDS011;4897;43.570;27.832;2024-01-16T01:23:06;26.40;;;24.08;;
9716;SDS011;4897;43.570;27.832;2024-01-16T01:25:33;26.98;;;24.85;;
9716;SDS011;4897;43.570;27.832;2024-01-16T01:28:00;26.90;;;24.75;;
9716;SDS011;4897;43.570;27.832;2024-01-16T01:30:32;27.05;;;24.95;;
9716;SDS011;4897;43.570;27.832;2024-01-16T01:32:58;26.15;;;23.95;;
9716;SDS011;4897;43.570;27.832;2024-01-16T01:35:25;26.95;;;24.85;;
9716;SDS011;4897;43.570;27.832;2024-01-16T01:37:52;25.70;;;23.67;;
9716;SDS011;4897;43.570;27.832;2024-01-16T01:40:20;26.65;;;24.48;;
9716;SDS011;4897;43.570;27.832;2024-01-16T01:42:47;26.17;;;24.17;;
9716;SDS011;4897;43.570;27.832;2024-01-16T01:45:14;27.17;;;24.77;;
9716;SDS011;4897;43.570;27.832;2024-01-16T01:47:49;24.63;;;22.73;;
9716;SDS011;4897;43.570;27.832;2024-01-16T01:50:16;25.70;;;23.60;;
9716;SDS011;4897;43.570;27.832;2024-01-16T01:52:43;25.70;;;23.40;;
9716;SDS011;4897;43.570;27.832;2024-01-16T01:55:11;27.55;;;25.42;;
9716;SDS011;4897;43.570;27.832;2024-01-16T01:57:40;25.98;;;24.00;;
9716;SDS011;4897;43.570;27.832;2024-01-16T02:00:09;28.02;;;25.85;;
9716;SDS011;4897;43.570;27.832;2024-01-16T02:02:36;30.45;;;28.15;;
9716;SDS011;4897;43.570;27.832;2024-01-16T02:05:05;32.30;;;29.80;;
9716;SDS011;4897;43.570;27.832;2024-01-16T02:07:33;33.50;;;31.00;;
9716;SDS011;4897;43.570;27.832;2024-01-16T02:10:00;34.25;;;31.67;;
9716;SDS011;4897;43.570;27.832;2024-01-16T02:12:28;32.42;;;30.00;;
9716;SDS011;4897;43.570;27.832;2024-01-16T02:14:56;32.05;;;29.65;;
9716;SDS011;4897;43.570;27.832;2024-01-16T02:17:22;29.52;;;27.13;;
9716;SDS011;4897;43.570;27.832;2024-01-16T02:19:49;30.15;;;27.85;;
9716;SDS011;4897;43.570;27.832;2024-01-16T02:22:20;26.50;;;24.50;;
9716;SDS011;4897;43.570;27.832;2024-01-16T02:24:51;27.27;;;25.23;;
9716;SDS011;4897;43.570;27.832;2024-01-16T02:27:18;27.90;;;25.60;;
9716;SDS011;4897;43.570;27.832;2024-01-16T02:29:45;30.10;;;27.73;;
9716;SDS011;4897;43.570;27.832;2024-01-16T02:32:12;29.63;;;27.25;;
9716;SDS011;4897;43.570;27.832;2024-01-16T02:34:39;33.30;;;30.80;;
9716;SDS011;4897;43.570;27.832;2024-01-16T02:37:06;30.70;;;28.35;;
9716;SDS011;4897;43.570;27.832;2024-01-16T02:39:33;29.40;;;26.90;;
9716;SDS011;4897;43.570;27.832;2024-01-16T02:42:02;28.35;;;26.00;;
9716;SDS011;4897;43.570;27.832;2024-01-16T02:44:29;28.55;;;26.25;;
9716;SDS011;4897;43.570;27.832;2024-01-16T02:46:56;29.02;;;26.65;;
9716;SDS011;4897;43.570;27.832;2024-01-16T02:49:23;29.23;;;26.50;;
9716;SDS011;4897;43.570;27.832;2024-01-16T02:51:51;28.35;;;25.75;;
9716;SDS011;4897;43.570;27.832;2024-01-16T02:54:18;25.42;;;23.02;;
9716;SDS011;4897;43.570;27.832;2024-01-16T02:56:44;24.73;;;22.45;;
9716;SDS011;4897;43.570;27.832;2024-01-16T02:59:13;26.35;;;23.85;;
9716;SDS011;4897;43.570;27.832;2024-01-16T03:01:42;25.35;;;23.17;;
9716;SDS011;4897;43.570;27.832;2024-01-16T03:04:09;28.85;;;26.35;;
9716;SDS011;4897;43.570;27.832;2024-01-16T03:06:36;27.92;;;25.52;;
9716;SDS011;4897;43.570;27.832;2024-01-16T03:09:03;32.97;;;30.27;;
9716;SDS011;4897;43.570;27.832;2024-01-16T03:11:31;31.83;;;29.23;;
9716;SDS011;4897;43.570;27.832;2024-01-16T03:13:58;33.85;;;31.25;;
9716;SDS011;4897;43.570;27.832;2024-01-16T03:16:27;37.15;;;34.22;;
9716;SDS011;4897;43.570;27.832;2024-01-16T03:18:54;35.85;;;32.95;;
9716;SDS011;4897;43.570;27.832;2024-01-16T03:21:21;33.38;;;30.73;;
9716;SDS011;4897;43.570;27.832;2024-01-16T03:23:48;33.13;;;30.40;;
9716;SDS011;4897;43.570;27.832;2024-01-16T03:26:22;28.77;;;26.00;;
9716;SDS011;4897;43.570;27.832;2024-01-16T03:28:48;27.65;;;25.33;;
9716;SDS011;4897;43.570;27.832;2024-01-16T03:31:15;24.38;;;22.33;;
9716;SDS011;4897;43.570;27.832;2024-01-16T03:33:45;24.60;;;22.48;;
9716;SDS011;4897;43.570;27.832;2024-01-16T03:36:12;25.35;;;23.20;;
9716;SDS011;4897;43.570;27.832;2024-01-16T03:38:41;24.80;;;22.73;;
9716;SDS011;4897;43.570;27.832;2024-01-16T03:41:11;26.38;;;24.05;;
9716;SDS011;4897;43.570;27.832;2024-01-16T03:43:38;26.92;;;24.80;;
9716;SDS011;4897;43.570;27.832;2024-01-16T03:46:05;26.48;;;24.38;;
9716;SDS011;4897;43.570;27.832;2024-01-16T03:48:32;26.95;;;24.65;;
9716;SDS011;4897;43.570;27.832;2024-01-16T03:51:01;28.42;;;26.17;;
9716;SDS011;4897;43.570;27.832;2024-01-16T03:53:28;29.40;;;27.00;;
9716;SDS011;4897;43.570;27.832;2024-01-16T03:55:55;31.25;;;28.75;;
9716;SDS011;4897;43.570;27.832;2024-01-16T03:58:22;25.25;;;22.95;;
9716;SDS011;4897;43.570;27.832;2024-01-16T04:00:49;28.48;;;26.17;;
9716;SDS011;4897;43.570;27.832;2024-01-16T04:03:18;27.25;;;24.95;;
9716;SDS011;4897;43.570;27.832;2024-01-16T04:05:47;24.85;;;22.63;;
9716;SDS011;4897;43.570;27.832;2024-01-16T04:08:15;24.77;;;22.60;;
9716;SDS011;4897;43.570;27.832;2024-01-16T04:10:42;24.20;;;21.98;;
9716;SDS011;4897;43.570;27.832;2024-01-16T04:13:09;21.25;;;19.38;;
9716;SDS011;4897;43.570;27.832;2024-01-16T04:15:37;18.17;;;16.20;;
9716;SDS011;4897;43.570;27.832;2024-01-16T04:18:04;31.88;;;29.38;;
9716;SDS011;4897;43.570;27.832;2024-01-16T04:20:32;16.05;;;14.63;;
9716;SDS011;4897;43.570;27.832;2024-01-16T04:23:02;20.98;;;19.25;;
9716;SDS011;4897;43.570;27.832;2024-01-16T04:25:30;24.02;;;22.05;;
9716;SDS011;4897;43.570;27.832;2024-01-16T04:28:00;25.20;;;23.25;;
9716;SDS011;4897;43.570;27.832;2024-01-16T04:30:27;27.17;;;25.02;;
9716;SDS011;4897;43.570;27.832;2024-01-16T04:32:54;30.85;;;28.25;;
9716;SDS011;4897;43.570;27.832;2024-01-16T04:35:21;32.67;;;30.17;;
9716;SDS011;4897;43.570;27.832;2024-01-16T04:37:48;31.92;;;29.23;;
9716;SDS011;4897;43.570;27.832;2024-01-16T04:40:15;31.92;;;29.20;;
9716;SDS011;4897;43.570;27.832;2024-01-16T04:42:43;31.00;;;28.42;;
9716;SDS011;4897;43.570;27.832;2024-01-16T04:45:10;32.20;;;29.60;;
9716;SDS011;4897;43.570;27.832;2024-01-16T04:47:37;29.73;;;27.33;;
9716;SDS011;4897;43.570;27.832;2024-01-16T04:50:04;25.50;;;23.42;;
9716;SDS011;4897;43.570;27.832;2024-01-16T04:52:31;26.20;;;24.08;;
9716;SDS011;4897;43.570;27.832;2024-01-16T04:54:58;24.88;;;22.60;;
9716;SDS011;4897;43.570;27.832;2024-01-16T04:57:25;22.92;;;21.02;;
9716;SDS011;4897;43.570;27.832;2024-01-16T04:59:53;21.73;;;19.92;;
9716;SDS011;4897;43.570;27.832;2024-01-16T05:02:20;22.77;;;20.88;;
9716;SDS011;4897;43.570;27.832;2024-01-16T05:04:47;23.77;;;21.77;;
9716;SDS011;4897;43.570;27.832;2024-01-16T05:07:17;23.85;;;21.88;;
9716;SDS011;4897;43.570;27.832;2024-01-16T05:09:45;24.55;;;22.50;;
9716;SDS011;4897;43.570;27.832;2024-01-16T05:12:12;24.98;;;22.85;;
9716;SDS011;4897;43.570;27.832;2024-01-16T05:14:39;24.60;;;22.50;;
9716;SDS011;4897;43.570;27.832;2024-01-16T05:17:08;24.77;;;22.65;;
9716;SDS011;4897;43.570;27.832;2024-01-16T05:19:35;21.48;;;19.58;;
9716;SDS011;4897;43.570;27.832;2024-01-16T05:22:02;21.80;;;19.70;;
9716;SDS011;4897;43.570;27.832;2024-01-16T05:24:32;20.42;;;18.40;;
9716;SDS011;4897;43.570;27.832;2024-01-16T05:26:59;21.77;;;19.88;;
9716;SDS011;4897;43.570;27.832;2024-01-16T05:29:26;20.05;;;18.20;;
9716;SDS011;4897;43.570;27.832;2024-01-16T05:31:53;20.05;;;18.30;;
9716;SDS011;4897;43.570;27.832;2024-01-16T05:34:21;20.23;;;18.45;;
9716;SDS011;4897;43.570;27.832;2024-01-16T05:36:48;21.90;;;19.98;;
9716;SDS011;4897;43.570;27.832;2024-01-16T05:39:15;22.80;;;20.83;;
9716;SDS011;4897;43.570;27.832;2024-01-16T05:41:43;23.52;;;21.52;;
9716;SDS011;4897;43.570;27.832;2024-01-16T05:44:10;23.67;;;21.48;;
9716;SDS011;4897;43.570;27.832;2024-01-16T05:46:37;26.67;;;24.50;;
9716;SDS011;4897;43.570;27.832;2024-01-16T05:49:04;23.58;;;21.52;;
9716;SDS011;4897;43.570;27.832;2024-01-16T05:51:32;23.98;;;21.90;;
9716;SDS011;4897;43.570;27.832;2024-01-16T05:53:59;22.95;;;20.95;;
9716;SDS011;4897;43.570;27.832;2024-01-16T05:56:26;23.90;;;21.80;;
9716;SDS011;4897;43.570;27.832;2024-01-16T05:58:53;23.98;;;21.15;;
9716;SDS011;4897;43.570;27.832;2024-01-16T06:01:20;22.23;;;20.02;;
9716;SDS011;4897;43.570;27.832;2024-01-16T06:03:47;24.33;;;21.98;;
9716;SDS011;4897;43.570;27.832;2024-01-16T06:06:15;21.08;;;19.10;;
9716;SDS011;4897;43.570;27.832;2024-01-16T06:08:43;22.83;;;20.73;;
9716;SDS011;4897;43.570;27.832;2024-01-16T06:11:10;22.70;;;20.50;;
9716;SDS011;4897;43.570;27.832;2024-01-16T06:13:37;22.52;;;20.33;;
9716;SDS011;4897;43.570;27.832;2024-01-16T06:16:05;23.73;;;20.52;;
9716;SDS011;4897;43.570;27.832;2024-01-16T06:18:33;23.40;;;21.20;;
9716;SDS011;4897;43.570;27.832;2024-01-16T06:21:00;24.75;;;22.55;;
9716;SDS011;4897;43.570;27.832;2024-01-16T06:23:27;25.10;;;22.65;;
9716;SDS011;4897;43.570;27.832;2024-01-16T06:25:55;29.23;;;26.33;;
9716;SDS011;4897;43.570;27.832;2024-01-16T06:28:22;25.10;;;22.83;;
9716;SDS011;4897;43.570;27.832;2024-01-16T06:30:48;26.45;;;24.02;;
9716;SDS011;4897;43.570;27.832;2024-01-16T06:33:18;26.60;;;24.10;;
9716;SDS011;4897;43.570;27.832;2024-01-16T06:35:44;26.25;;;23.77;;
9716;SDS011;4897;43.570;27.832;2024-01-16T06:38:11;25.30;;;22.98;;
9716;SDS011;4897;43.570;27.832;2024-01-16T06:40:38;26.25;;;23.83;;
9716;SDS011;4897;43.570;27.832;2024-01-16T06:43:07;26.88;;;24.35;;
9716;SDS011;4897;43.570;27.832;2024-01-16T06:45:34;25.20;;;22.90;;
9716;SDS011;4897;43.570;27.832;2024-01-16T06:48:01;24.90;;;22.67;;
9716;SDS011;4897;43.570;27.832;2024-01-16T06:50:27;24.27;;;22.00;;
9716;SDS011;4897;43.570;27.832;2024-01-16T06:52:54;26.65;;;24.25;;
9716;SDS011;4897;43.570;27.832;2024-01-16T06:55:21;25.70;;;23.27;;
9716;SDS011;4897;43.570;27.832;2024-01-16T06:57:48;54.15;;;22.98;;
9716;SDS011;4897;43.570;27.832;2024-01-16T07:00:17;23.25;;;21.15;;
9716;SDS011;4897;43.570;27.832;2024-01-16T07:02:44;25.58;;;23.08;;
9716;SDS011;4897;43.570;27.832;2024-01-16T07:05:11;24.40;;;22.20;;
9716;SDS011;4897;43.570;27.832;2024-01-16T07:07:38;30.67;;;26.63;;
9716;SDS011;4897;43.570;27.832;2024-01-16T07:10:06;35.80;;;31.90;;
9716;SDS011;4897;43.570;27.832;2024-01-16T07:12:38;23.70;;;21.40;;
9716;SDS011;4897;43.570;27.832;2024-01-16T07:15:06;23.02;;;20.73;;
9716;SDS011;4897;43.570;27.832;2024-01-16T07:17:34;23.65;;;21.45;;
9716;SDS011;4897;43.570;27.832;2024-01-16T07:20:01;23.50;;;21.00;;
9716;SDS011;4897;43.570;27.832;2024-01-16T07:22:29;24.85;;;22.35;;
9716;SDS011;4897;43.570;27.832;2024-01-16T07:24:56;24.48;;;21.92;;
9716;SDS011;4897;43.570;27.832;2024-01-16T07:27:23;22.58;;;20.30;;
9716;SDS011;4897;43.570;27.832;2024-01-16T07:29:50;26.50;;;23.90;;
9716;SDS011;4897;43.570;27.832;2024-01-16T07:32:16;24.73;;;21.85;;
9716;SDS011;4897;43.570;27.832;2024-01-16T07:34:45;24.50;;;22.08;;
9716;SDS011;4897;43.570;27.832;2024-01-16T07:37:12;23.50;;;21.15;;
9716;SDS011;4897;43.570;27.832;2024-01-16T07:39:39;21.85;;;19.95;;
9716;SDS011;4897;43.570;27.832;2024-01-16T07:42:08;20.35;;;18.30;;
9716;SDS011;4897;43.570;27.832;2024-01-16T07:44:36;22.63;;;20.33;;
9716;SDS011;4897;43.570;27.832;2024-01-16T07:47:03;21.92;;;19.92;;
9716;SDS011;4897;43.570;27.832;2024-01-16T07:49:30;21.20;;;19.17;;
9716;SDS011;4897;43.570;27.832;2024-01-16T07:51:58;22.80;;;20.60;;
9716;SDS011;4897;43.570;27.832;2024-01-16T07:54:26;24.33;;;22.02;;
9716;SDS011;4897;43.570;27.832;2024-01-16T07:56:53;21.05;;;19.13;;
9716;SDS011;4897;43.570;27.832;2024-01-16T07:59:20;22.23;;;20.02;;
9716;SDS011;4897;43.570;27.832;2024-01-16T08:01:46;19.35;;;17.65;;
9716;SDS011;4897;43.570;27.832;2024-01-16T08:04:13;22.08;;;20.13;;
9716;SDS011;4897;43.570;27.832;2024-01-16T08:06:40;20.75;;;18.90;;
9716;SDS011;4897;43.570;27.832;2024-01-16T08:09:10;22.85;;;20.55;;
9716;SDS011;4897;43.570;27.832;2024-01-16T08:11:37;25.88;;;23.27;;
9716;SDS011;4897;43.570;27.832;2024-01-16T08:14:04;23.02;;;20.92;;
9716;SDS011;4897;43.570;27.832;2024-01-16T08:16:31;24.60;;;22.17;;
9716;SDS011;4897;43.570;27.832;2024-01-16T08:18:58;27.67;;;23.65;;
9716;SDS011;4897;43.570;27.832;2024-01-16T08:21:25;21.95;;;19.67;;
9716;SDS011;4897;43.570;27.832;2024-01-16T08:23:52;25.52;;;23.05;;
9716;SDS011;4897;43.570;27.832;2024-01-16T08:26:20;26.88;;;24.13;;
9716;SDS011;4897;43.570;27.832;2024-01-16T08:28:47;25.52;;;23.05;;
9716;SDS011;4897;43.570;27.832;2024-01-16T08:31:16;24.42;;;22.02;;
9716;SDS011;4897;43.570;27.832;2024-01-16T08:33:43;24.58;;;22.10;;
9716;SDS011;4897;43.570;27.832;2024-01-16T08:36:10;24.95;;;22.42;;
9716;SDS011;4897;43.570;27.832;2024-01-16T08:38:37;25.23;;;22.52;;
9716;SDS011;4897;43.570;27.832;2024-01-16T08:41:04;26.67;;;23.00;;
9716;SDS011;4897;43.570;27.832;2024-01-16T08:43:33;26.95;;;23.42;;
9716;SDS011;4897;43.570;27.832;2024-01-16T08:46:03;26.50;;;23.77;;
9716;SDS011;4897;43.570;27.832;2024-01-16T08:48:30;30.08;;;26.90;;
9716;SDS011;4897;43.570;27.832;2024-01-16T08:50:57;30.27;;;27.20;;
9716;SDS011;4897;43.570;27.832;2024-01-16T08:53:24;30.55;;;27.35;;
9716;SDS011;4897;43.570;27.832;2024-01-16T08:55:51;29.27;;;26.13;;
9716;SDS011;4897;43.570;27.832;2024-01-16T08:58:18;30.77;;;27.77;;
9716;SDS011;4897;43.570;27.832;2024-01-16T09:00:46;27.15;;;24.35;;
9716;SDS011;4897;43.570;27.832;2024-01-16T09:03:13;27.27;;;24.45;;
9716;SDS011;4897;43.570;27.832;2024-01-16T09:05:40;26.23;;;23.63;;
9716;SDS011;4897;43.570;27.832;2024-01-16T09:08:08;27.70;;;25.00;;
9716;SDS011;4897;43.570;27.832;2024-01-16T09:10:35;26.20;;;23.55;;
9716;SDS011;4897;43.570;27.832;2024-01-16T09:13:02;27.00;;;23.70;;
9716;SDS011;4897;43.570;27.832;2024-01-16T09:15:29;26.65;;;23.80;;
9716;SDS011;4897;43.570;27.832;2024-01-16T09:17:58;25.80;;;23.10;;
9716;SDS011;4897;43.570;27.832;2024-01-16T09:20:25;22.30;;;19.92;;
9716;SDS011;4897;43.570;27.832;2024-01-16T09:22:52;23.15;;;20.90;;
9716;SDS011;4897;43.570;27.832;2024-01-16T09:25:18;23.13;;;21.05;;
9716;SDS011;4897;43.570;27.832;2024-01-16T09:27:49;25.95;;;23.55;;
9716;SDS011;4897;43.570;27.832;2024-01-16T09:30:16;25.02;;;22.63;;
9716;SDS011;4897;43.570;27.832;2024-01-16T09:32:47;26.00;;;23.52;;
9716;SDS011;4897;43.570;27.832;2024-01-16T09:35:16;24.65;;;22.40;;
9716;SDS011;4897;43.570;27.832;2024-01-16T09:37:43;27.73;;;25.13;;
9716;SDS011;4897;43.570;27.832;2024-01-16T09:40:10;25.38;;;22.98;;
9716;SDS011;4897;43.570;27.832;2024-01-16T09:42:38;24.27;;;22.02;;
9716;SDS011;4897;43.570;27.832;2024-01-16T09:45:06;25.77;;;23.27;;
9716;SDS011;4897;43.570;27.832;2024-01-16T09:47:35;26.08;;;23.48;;
9716;SDS011;4897;43.570;27.832;2024-01-16T09:50:03;24.15;;;21.95;;
9716;SDS011;4897;43.570;27.832;2024-01-16T09:52:33;21.98;;;19.90;;
9716;SDS011;4897;43.570;27.832;2024-01-16T09:55:00;23.15;;;21.10;;
9716;SDS011;4897;43.570;27.832;2024-01-16T09:57:27;22.42;;;20.27;;
9716;SDS011;4897;43.570;27.832;2024-01-16T09:59:56;19.92;;;18.23;;
9716;SDS011;4897;43.570;27.832;2024-01-16T10:02:28;20.00;;;18.23;;
9716;SDS011;4897;43.570;27.832;2024-01-16T10:04:56;17.70;;;16.10;;
9716;SDS011;4897;43.570;27.832;2024-01-16T10:07:23;16.92;;;15.45;;
9716;SDS011;4897;43.570;27.832;2024-01-16T10:09:57;18.92;;;17.42;;
9716;SDS011;4897;43.570;27.832;2024-01-16T10:12:24;20.90;;;19.20;;
9716;SDS011;4897;43.570;27.832;2024-01-16T10:14:51;20.77;;;18.98;;
9716;SDS011;4897;43.570;27.832;2024-01-16T10:17:20;20.27;;;18.67;;
9716;SDS011;4897;43.570;27.832;2024-01-16T10:19:47;17.63;;;16.10;;
9716;SDS011;4897;43.570;27.832;2024-01-16T10:22:19;18.55;;;16.90;;
9716;SDS011;4897;43.570;27.832;2024-01-16T10:24:47;20.80;;;19.10;;
9716;SDS011;4897;43.570;27.832;2024-01-16T10:27:18;19.92;;;18.23;;
9716;SDS011;4897;43.570;27.832;2024-01-16T10:29:54;20.48;;;18.65;;
9716;SDS011;4897;43.570;27.832;2024-01-16T10:32:28;17.60;;;16.00;;
9716;SDS011;4897;43.570;27.832;2024-01-16T10:35:02;15.13;;;13.75;;
9716;SDS011;4897;43.570;27.832;2024-01-16T10:37:30;16.90;;;15.32;;
9716;SDS011;4897;43.570;27.832;2024-01-16T10:40:07;17.90;;;16.40;;
9716;SDS011;4897;43.570;27.832;2024-01-16T10:42:37;17.33;;;15.82;;
9716;SDS011;4897;43.570;27.832;2024-01-16T10:45:05;14.80;;;13.40;;
9716;SDS011;4897;43.570;27.832;2024-01-16T10:47:33;15.60;;;14.20;;
9716;SDS011;4897;43.570;27.832;2024-01-16T10:50:02;18.20;;;16.80;;
9716;SDS011;4897;43.570;27.832;2024-01-16T10:52:32;19.55;;;17.95;;
9716;SDS011;4897;43.570;27.832;2024-01-16T10:55:00;20.10;;;18.50;;
9716;SDS011;4897;43.570;27.832;2024-01-16T10:57:32;25.55;;;23.08;;
9716;SDS011;4897;43.570;27.832;2024-01-16T11:00:04;21.27;;;19.58;;
9716;SDS011;4897;43.570;27.832;2024-01-16T11:02:38;19.33;;;17.65;;
9716;SDS011;4897;43.570;27.832;2024-01-16T11:05:10;20.60;;;18.60;;
9716;SDS011;4897;43.570;27.832;2024-01-16T11:07:40;18.60;;;17.25;;
9716;SDS011;4897;43.570;27.832;2024-01-16T11:10:09;18.52;;;17.13;;
9716;SDS011;4897;43.570;27.832;2024-01-16T11:12:38;17.55;;;16.25;;
9716;SDS011;4897;43.570;27.832;2024-01-16T11:15:08;18.02;;;16.52;;
9716;SDS011;4897;43.570;27.832;2024-01-16T11:17:38;19.17;;;17.67;;
9716;SDS011;4897;43.570;27.832;2024-01-16T11:20:07;18.77;;;17.05;;
9716;SDS011;4897;43.570;27.832;2024-01-16T11:22:38;17.30;;;15.80;;
9716;SDS011;4897;43.570;27.832;2024-01-16T11:25:09;17.63;;;16.08;;
9716;SDS011;4897;43.570;27.832;2024-01-16T11:27:40;17.13;;;15.60;;
9716;SDS011;4897;43.570;27.832;2024-01-16T11:30:10;19.15;;;17.15;;
9716;SDS011;4897;43.570;27.832;2024-01-16T11:32:38;14.05;;;12.82;;
9716;SDS011;4897;43.570;27.832;2024-01-16T11:35:06;16.15;;;14.57;;
9716;SDS011;4897;43.570;27.832;2024-01-16T11:37:34;16.40;;;15.20;;
9716;SDS011;4897;43.570;27.832;2024-01-16T11:40:20;20.52;;;18.95;;
9716;SDS011;4897;43.570;27.832;2024-01-16T11:42:51;18.75;;;17.35;;
9716;SDS011;4897;43.570;27.832;2024-01-16T11:48:16;16.38;;;12.88;;
9716;SDS011;4897;43.570;27.832;2024-01-16T11:50:44;16.55;;;15.15;;
9716;SDS011;4897;43.570;27.832;2024-01-16T11:53:11;17.50;;;16.20;;
9716;SDS011;4897;43.570;27.832;2024-01-16T11:56:01;13.93;;;12.73;;
9716;SDS011;4897;43.570;27.832;2024-01-16T11:58:43;14.25;;;12.93;;
9716;SDS011;4897;43.570;27.832;2024-01-16T12:01:16;16.92;;;15.73;;
9716;SDS011;4897;43.570;27.832;2024-01-16T12:03:46;17.20;;;15.90;;
9716;SDS011;4897;43.570;27.832;2024-01-16T12:06:15;13.88;;;12.63;;
9716;SDS011;4897;43.570;27.832;2024-01-16T12:08:46;14.75;;;13.55;;
9716;SDS011;4897;43.570;27.832;2024-01-16T12:11:17;18.42;;;16.67;;
9716;SDS011;4897;43.570;27.832;2024-01-16T12:13:47;16.88;;;15.38;;
9716;SDS011;4897;43.570;27.832;2024-01-16T12:16:31;18.65;;;17.15;;
9716;SDS011;4897;43.570;27.832;2024-01-16T12:19:03;19.95;;;17.88;;
9716;SDS011;4897;43.570;27.832;2024-01-16T12:21:32;18.35;;;16.85;;
9716;SDS011;4897;43.570;27.832;2024-01-16T12:24:01;18.20;;;16.92;;
9716;SDS011;4897;43.570;27.832;2024-01-16T12:26:29;17.88;;;16.38;;
9716;SDS011;4897;43.570;27.832;2024-01-16T12:28:57;20.02;;;18.20;;
9716;SDS011;4897;43.570;27.832;2024-01-16T12:31:24;17.80;;;16.50;;
9716;SDS011;4897;43.570;27.832;2024-01-16T12:33:53;14.40;;;13.20;;
9716;SDS011;4897;43.570;27.832;2024-01-16T12:36:21;14.23;;;13.23;;
9716;SDS011;4897;43.570;27.832;2024-01-16T12:38:53;18.70;;;17.27;;
9716;SDS011;4897;43.570;27.832;2024-01-16T12:41:24;16.85;;;15.65;;
9716;SDS011;4897;43.570;27.832;2024-01-16T12:43:53;15.43;;;14.13;;
9716;SDS011;4897;43.570;27.832;2024-01-16T12:46:20;13.40;;;12.32;;
9716;SDS011;4897;43.570;27.832;2024-01-16T12:48:47;19.60;;;18.10;;
9716;SDS011;4897;43.570;27.832;2024-01-16T12:51:21;18.35;;;16.55;;
9716;SDS011;4897;43.570;27.832;2024-01-16T12:53:49;16.30;;;14.38;;
9716;SDS011;4897;43.570;27.832;2024-01-16T12:56:18;14.45;;;13.15;;
9716;SDS011;4897;43.570;27.832;2024-01-16T12:58:46;16.50;;;15.02;;
9716;SDS011;4897;43.570;27.832;2024-01-16T13:01:23;16.08;;;14.85;;
9716;SDS011;4897;43.570;27.832;2024-01-16T13:03:51;15.20;;;13.77;;
9716;SDS011;4897;43.570;27.832;2024-01-16T13:06:19;13.68;;;12.68;;
9716;SDS011;4897;43.570;27.832;2024-01-16T13:08:48;17.33;;;16.00;;
9716;SDS011;4897;43.570;27.832;2024-01-16T13:11:15;14.70;;;13.45;;
9716;SDS011;4897;43.570;27.832;2024-01-16T13:13:45;18.60;;;16.80;;
9716;SDS011;4897;43.570;27.832;2024-01-16T13:16:13;17.48;;;15.90;;
9716;SDS011;4897;43.570;27.832;2024-01-16T13:18:40;21.80;;;20.20;;
9716;SDS011;4897;43.570;27.832;2024-01-16T13:21:07;15.45;;;13.95;;
9716;SDS011;4897;43.570;27.832;2024-01-16T13:23:36;16.25;;;14.98;;
9716;SDS011;4897;43.570;27.832;2024-01-16T13:26:03;15.63;;;14.32;;
9716;SDS011;4897;43.570;27.832;2024-01-16T13:28:32;20.25;;;18.48;;
9716;SDS011;4897;43.570;27.832;2024-01-16T13:30:59;18.38;;;16.50;;
9716;SDS011;4897;43.570;27.832;2024-01-16T13:33:26;15.82;;;14.63;;
9716;SDS011;4897;43.570;27.832;2024-01-16T13:35:53;15.80;;;14.60;;
9716;SDS011;4897;43.570;27.832;2024-01-16T13:38:22;19.50;;;17.90;;
9716;SDS011;4897;43.570;27.832;2024-01-16T13:40:51;15.88;;;14.52;;
9716;SDS011;4897;43.570;27.832;2024-01-16T13:43:18;15.48;;;14.32;;
9716;SDS011;4897;43.570;27.832;2024-01-16T13:45:47;15.07;;;13.98;;
9716;SDS011;4897;43.570;27.832;2024-01-16T13:48:14;18.58;;;17.17;;
9716;SDS011;4897;43.570;27.832;2024-01-16T13:50:44;18.85;;;17.45;;
9716;SDS011;4897;43.570;27.832;2024-01-16T13:53:11;15.40;;;14.18;;
9716;SDS011;4897;43.570;27.832;2024-01-16T13:55:39;15.15;;;13.90;;
9716;SDS011;4897;43.570;27.832;2024-01-16T13:58:07;17.95;;;16.45;;
9716;SDS011;4897;43.570;27.832;2024-01-16T14:00:35;17.10;;;15.80;;
9716;SDS011;4897;43.570;27.832;2024-01-16T14:03:03;19.52;;;18.13;;
9716;SDS011;4897;43.570;27.832;2024-01-16T14:05:31;15.23;;;14.02;;
9716;SDS011;4897;43.570;27.832;2024-01-16T14:07:58;18.45;;;16.77;;
9716;SDS011;4897;43.570;27.832;2024-01-16T14:10:25;20.95;;;19.27;;
9716;SDS011;4897;43.570;27.832;2024-01-16T14:12:52;22.10;;;20.20;;
9716;SDS011;4897;43.570;27.832;2024-01-16T14:15:21;17.30;;;15.88;;
9716;SDS011;4897;43.570;27.832;2024-01-16T14:17:49;16.90;;;15.30;;
9716;SDS011;4897;43.570;27.832;2024-01-16T14:20:18;17.08;;;15.60;;
9716;SDS011;4897;43.570;27.832;2024-01-16T14:22:48;19.77;;;18.23;;
9716;SDS011;4897;43.570;27.832;2024-01-16T14:25:15;20.85;;;19.08;;
9716;SDS011;4897;43.570;27.832;2024-01-16T14:27:44;17.20;;;15.68;;
9716;SDS011;4897;43.570;27.832;2024-01-16T14:30:23;17.35;;;15.68;;
9716;SDS011;4897;43.570;27.832;2024-01-16T14:32:50;22.10;;;20.10;;
9716;SDS011;4897;43.570;27.832;2024-01-16T14:35:18;20.02;;;18.42;;
9716;SDS011;4897;43.570;27.832;2024-01-16T14:37:45;20.35;;;18.73;;
9716;SDS011;4897;43.570;27.832;2024-01-16T14:40:12;22.52;;;20.52;;
9716;SDS011;4897;43.570;27.832;2024-01-16T14:42:46;23.60;;;21.20;;